createdAt,value
2019-01-27T00:04:48.509Z,4.90
2019-01-27T00:09:53.977Z,4.90
2019-01-27T00:14:57.281Z,4.90
2019-01-27T00:20:07.573Z,4.90
2019-01-27T00:25:17.389Z,4.90
2019-01-27T00:30:23.411Z,4.90
2019-01-27T00:35:26.705Z,4.90
2019-01-27T00:40:29.915Z,4.90
2019-01-27T00:45:33.399Z,4.90
2019-01-27T00:50:36.840Z,4.80
2019-01-27T00:55:40.178Z,4.80
2019-01-27T01:00:43.351Z,4.90
2019-01-27T01:05:47.488Z,4.80
2019-01-27T01:10:50.799Z,4.80
2019-01-27T01:15:57.209Z,4.90
2019-01-27T01:21:00.697Z,4.90
2019-01-27T01:26:04.142Z,4.90
2019-01-27T01:31:07.693Z,4.80
2019-01-27T01:36:11.058Z,4.80
2019-01-27T01:41:16.467Z,4.90
2019-01-27T01:46:19.906Z,4.80
2019-01-27T01:51:24.255Z,4.90
2019-01-27T01:56:27.422Z,4.80
2019-01-27T02:01:30.685Z,4.80
2019-01-27T02:06:34.249Z,4.90
2019-01-27T02:11:43.176Z,4.80
2019-01-27T02:16:46.565Z,4.80
2019-01-27T02:21:58.959Z,4.80
2019-01-27T02:27:02.440Z,4.80
2019-01-27T02:32:05.700Z,4.80
2019-01-27T02:37:12.233Z,4.80
2019-01-27T02:42:16.027Z,4.90
2019-01-27T02:47:19.162Z,4.90
2019-01-27T02:52:22.505Z,4.90
2019-01-27T02:57:28.566Z,4.90
2019-01-27T03:02:34.651Z,4.90
2019-01-27T03:07:38.727Z,4.80
2019-01-27T03:12:42.210Z,4.80
2019-01-27T03:17:45.884Z,4.90
2019-01-27T03:22:53.307Z,4.80
2019-01-27T03:27:56.704Z,4.80
2019-01-27T03:33:03.132Z,4.80
2019-01-27T03:38:06.603Z,4.80
2019-01-27T03:43:09.869Z,4.70
2019-01-27T03:48:13.148Z,4.70
2019-01-27T03:53:16.736Z,4.80
2019-01-27T03:58:19.982Z,4.70
2019-01-27T04:03:23.329Z,4.70
2019-01-27T04:08:26.875Z,4.70
2019-01-27T04:13:36.740Z,4.60
2019-01-27T04:18:42.915Z,4.70
2019-01-27T04:23:46.226Z,4.70
2019-01-27T04:28:50.703Z,4.60
2019-01-27T04:33:57.663Z,4.60
2019-01-27T04:39:01.045Z,4.50
2019-01-27T04:44:05.194Z,4.60
2019-01-27T04:49:08.577Z,4.60
2019-01-27T04:54:15.201Z,4.50
2019-01-27T04:59:21.514Z,4.40
2019-01-27T05:04:35.832Z,4.40
2019-01-27T05:09:39.291Z,4.40
2019-01-27T05:14:45.356Z,4.40
2019-01-27T05:19:48.597Z,4.30
2019-01-27T05:24:57.948Z,4.30
2019-01-27T05:30:03.355Z,4.30
2019-01-27T05:35:06.579Z,4.30
2019-01-27T05:40:10.635Z,4.30
2019-01-27T05:45:19.021Z,4.30
2019-01-27T05:50:22.462Z,4.30
2019-01-27T05:55:25.849Z,4.30
2019-01-27T06:00:41.256Z,4.30
2019-01-27T06:05:44.478Z,4.30
2019-01-27T06:10:47.816Z,4.40
2019-01-27T06:15:51.387Z,4.30
2019-01-27T06:20:54.689Z,4.30
2019-01-27T06:25:59.504Z,4.30
2019-01-27T06:31:02.789Z,4.30
2019-01-27T06:36:08.978Z,4.30
2019-01-27T06:41:13.538Z,4.40
2019-01-27T06:46:18.924Z,4.30
2019-01-27T06:51:22.234Z,4.40
2019-01-27T06:56:27.329Z,4.40
2019-01-27T07:01:56.706Z,4.40
2019-01-27T07:07:26.639Z,4.40
2019-01-27T07:12:52.272Z,4.40
2019-01-27T07:18:13.640Z,4.40
2019-01-27T07:23:42.015Z,4.40
2019-01-27T07:29:07.676Z,4.40
2019-01-27T07:34:30.412Z,4.40
2019-01-27T07:40:05.160Z,4.40
2019-01-27T07:45:21.989Z,4.40
2019-01-27T07:50:53.494Z,4.50
2019-01-27T07:56:15.098Z,4.50
2019-01-27T08:01:24.965Z,4.50
2019-01-27T08:06:46.399Z,4.60
2019-01-27T08:12:12.237Z,4.60
2019-01-27T08:17:51.842Z,4.50
2019-01-27T08:23:02.890Z,4.60
2019-01-27T08:28:19.509Z,4.70
2019-01-27T08:33:52.460Z,4.70
2019-01-27T08:39:19.074Z,4.60
2019-01-27T08:44:31.600Z,4.60
2019-01-27T08:49:35.113Z,4.60
2019-01-27T08:54:38.476Z,4.70
2019-01-27T08:59:42.148Z,4.80
2019-01-27T09:04:50.305Z,4.60
2019-01-27T09:10:02.907Z,4.70
2019-01-27T09:15:29.147Z,4.70
2019-01-27T09:20:51.914Z,4.70
2019-01-27T09:26:02.595Z,4.70
2019-01-27T09:31:33.965Z,4.80
2019-01-27T09:37:01.853Z,4.80
2019-01-27T09:42:13.152Z,4.90
2019-01-27T09:47:34.176Z,4.90
2019-01-27T09:52:59.705Z,4.90
2019-01-27T09:58:22.574Z,5.00
2019-01-27T10:03:45.345Z,5.00
2019-01-27T10:09:01.758Z,5.00
2019-01-27T10:14:20.633Z,5.10
2019-01-27T10:19:44.464Z,5.20
2019-01-27T10:25:07.430Z,5.40
2019-01-27T10:30:36.920Z,5.60
2019-01-27T10:36:09.411Z,5.60
2019-01-27T10:41:32.591Z,5.50
2019-01-27T10:46:46.243Z,5.50
2019-01-27T10:52:20.785Z,5.50
2019-01-27T10:57:52.667Z,5.50
2019-01-27T11:03:21.201Z,5.50
2019-01-27T11:09:02.467Z,5.50
2019-01-27T11:14:38.748Z,5.50
2019-01-27T11:20:07.354Z,5.50
2019-01-27T11:25:42.410Z,5.60
2019-01-27T11:31:03.843Z,5.60
2019-01-27T11:36:16.063Z,5.60
2019-01-27T11:41:38.524Z,5.70
2019-01-27T11:47:02.314Z,5.80
2019-01-27T11:52:15.405Z,5.90
2019-01-27T11:57:15.909Z,5.90
2019-01-27T12:02:22.419Z,5.90
2019-01-27T12:07:25.749Z,5.90
2019-01-27T12:12:32.380Z,5.90
2019-01-27T12:17:35.820Z,5.90
2019-01-27T12:22:39.165Z,5.90
2019-01-27T12:27:42.551Z,6.00
2019-01-27T12:32:46.135Z,5.90
2019-01-27T12:37:49.716Z,6.00
2019-01-27T12:42:54.389Z,5.90
2019-01-27T12:47:57.907Z,6.00
2019-01-27T12:53:01.349Z,6.00
2019-01-27T12:58:07.325Z,6.10
2019-01-27T13:03:21.442Z,6.10
2019-01-27T13:08:25.951Z,6.00
2019-01-27T13:13:29.292Z,6.00
2019-01-27T13:18:32.548Z,6.10
2019-01-27T13:23:35.862Z,6.10
2019-01-27T13:28:39.374Z,6.00
2019-01-27T13:33:42.791Z,6.00
2019-01-27T13:38:51.224Z,6.10
2019-01-27T13:43:53.509Z,6.10
2019-01-27T13:48:57.066Z,6.10
2019-01-27T13:54:00.810Z,6.10
2019-01-27T13:59:04.425Z,6.10
2019-01-27T14:04:07.940Z,6.10
2019-01-27T14:09:11.867Z,6.10
2019-01-27T14:14:16.904Z,6.10
2019-01-27T14:19:20.319Z,6.20
2019-01-27T14:24:23.879Z,6.10
2019-01-27T14:29:27.464Z,6.00
2019-01-27T14:34:30.567Z,6.00
2019-01-27T14:39:33.971Z,6.00
2019-01-27T14:44:40.389Z,6.00
2019-01-27T14:49:43.703Z,6.00
2019-01-27T14:54:48.827Z,6.00
2019-01-27T14:59:52.257Z,6.00
2019-01-27T15:04:55.754Z,6.00
2019-01-27T15:10:01.115Z,5.90
2019-01-27T15:15:05.891Z,5.90
2019-01-27T15:25:28.507Z,5.90
2019-01-27T15:30:31.996Z,6.00
2019-01-27T15:35:35.805Z,5.90
2019-01-27T15:52:00.522Z,5.90
2019-01-27T15:57:58.206Z,5.90
2019-01-27T16:03:55.810Z,5.90
2019-01-27T16:09:57.403Z,5.90
2019-01-27T16:14:59.654Z,5.80
2019-01-27T16:20:57.031Z,5.90
2019-01-27T16:32:11.740Z,5.80
2019-01-27T16:38:09.711Z,5.90
2019-01-27T16:44:09.154Z,5.90
2019-01-27T16:50:06.846Z,5.90
2019-01-27T16:56:04.657Z,5.80
2019-01-27T17:02:02.306Z,5.70
2019-01-27T17:07:59.958Z,5.70
2019-01-27T17:13:02.785Z,5.70
2019-01-27T17:19:00.351Z,5.80
2019-01-27T17:24:58.826Z,5.80
2019-01-27T17:30:56.602Z,5.80
2019-01-27T17:36:54.798Z,5.80
2019-01-27T17:42:52.352Z,5.70
2019-01-27T17:48:49.343Z,5.80
2019-01-27T17:54:46.893Z,5.80
2019-01-27T18:00:44.515Z,5.80
2019-01-27T18:06:42.083Z,5.70
2019-01-27T18:12:05.462Z,5.70
2019-01-27T18:18:03.045Z,5.70
2019-01-27T18:24:00.510Z,5.70
2019-01-27T18:29:03.298Z,5.70
2019-01-27T18:35:00.878Z,5.60
2019-01-27T18:40:58.415Z,5.70
2019-01-27T18:46:56.192Z,5.80
2019-01-27T18:52:53.761Z,5.70
2019-01-27T18:58:51.317Z,5.90
2019-01-27T19:04:50.061Z,5.80
2019-01-27T19:10:18.253Z,5.90
2019-01-27T19:16:16.123Z,5.80
2019-01-27T19:22:13.728Z,5.80
2019-01-27T19:28:11.468Z,5.90
2019-01-27T19:34:09.098Z,5.90
2019-01-27T19:40:06.432Z,5.80
2019-01-27T19:46:03.534Z,5.80
2019-01-27T19:52:00.843Z,5.90
2019-01-27T19:57:57.949Z,5.90
2019-01-27T20:03:55.475Z,5.80
2019-01-27T20:09:53.241Z,5.90
2019-01-27T20:15:05.709Z,5.80
2019-01-27T20:21:02.946Z,5.80
2019-01-27T20:33:04.046Z,5.80
2019-01-27T20:39:01.924Z,5.70
2019-01-27T20:51:02.856Z,5.60
2019-01-27T20:57:00.844Z,5.60
2019-01-27T21:02:58.949Z,5.50
2019-01-27T21:08:21.398Z,5.50
2019-01-27T21:14:19.577Z,5.40
2019-01-27T21:20:17.177Z,5.50
2019-01-27T21:26:15.068Z,5.40
2019-01-27T21:32:12.784Z,5.40
2019-01-27T21:38:10.641Z,5.40
2019-01-27T21:44:08.532Z,5.30
2019-01-27T21:50:06.422Z,5.40
2019-01-27T21:56:04.311Z,5.30
2019-01-27T22:01:43.769Z,5.40
2019-01-27T22:06:47.316Z,5.30
2019-01-27T22:12:45.584Z,5.30
2019-01-27T22:18:43.199Z,5.20
2019-01-27T22:24:40.955Z,5.20
2019-01-27T22:30:38.639Z,5.10
2019-01-27T22:36:36.162Z,4.90
2019-01-27T22:42:34.113Z,4.90
2019-01-27T22:48:31.796Z,4.90
2019-01-27T22:54:29.584Z,4.80
2019-01-27T23:00:27.574Z,4.80
2019-01-27T23:06:25.378Z,4.70
2019-01-27T23:11:28.841Z,4.60
2019-01-27T23:17:26.764Z,4.50
2019-01-27T23:23:24.309Z,4.40
2019-01-27T23:29:22.340Z,4.40
2019-01-27T23:35:20.130Z,4.40
2019-01-27T23:41:18.021Z,4.40
2019-01-27T23:47:15.702Z,4.40
2019-01-27T23:53:13.592Z,4.40
2019-01-27T23:59:11.286Z,4.40
